sensor_id;sensor_type;location;lat;lon;timestamp;pressure;altitude;pressure_sealevel;temperature;humidity
18697;BME280;22617;43.690;27.956;2022-10-04T00:03:45;98673.78;;;10.51;79.43
18697;BME280;22617;43.690;27.956;2022-10-04T00:08:52;98671.28;;;10.43;79.85
18697;BME280;22617;43.690;27.956;2022-10-04T00:14:00;98675.56;;;10.47;80.10
18697;BME280;22617;43.690;27.956;2022-10-04T00:25:16;98666.16;;;10.33;79.70
18697;BME280;22617;43.690;27.956;2022-10-04T00:30:21;98673.91;;;10.37;80.46
18697;BME280;22617;43.690;27.956;2022-10-04T00:35:46;98681.66;;;10.49;79.76
18697;BME280;22617;43.690;27.956;2022-10-04T00:40:55;98686.00;;;10.49;79.23
18697;BME280;22617;43.690;27.956;2022-10-04T00:46:05;98685.16;;;10.42;79.11
18697;BME280;22617;43.690;27.956;2022-10-04T00:51:14;98691.28;;;10.38;79.10
18697;BME280;22617;43.690;27.956;2022-10-04T00:56:28;98692.19;;;10.31;79.56
18697;BME280;22617;43.690;27.956;2022-10-04T01:01:34;98693.88;;;10.38;79.37
18697;BME280;22617;43.690;27.956;2022-10-04T01:06:39;98701.78;;;10.29;79.08
18697;BME280;22617;43.690;27.956;2022-10-04T01:11:54;98692.25;;;10.25;78.98
18697;BME280;22617;43.690;27.956;2022-10-04T01:17:01;98690.56;;;10.18;79.48
18697;BME280;22617;43.690;27.956;2022-10-04T01:22:10;98702.72;;;10.18;80.09
18697;BME280;22617;43.690;27.956;2022-10-04T01:27:36;98695.78;;;10.18;79.89
18697;BME280;22617;43.690;27.956;2022-10-04T01:32:40;98714.00;;;10.14;80.23
18697;BME280;22617;43.690;27.956;2022-10-04T01:37:46;98722.72;;;10.10;80.93
18697;BME280;22617;43.690;27.956;2022-10-04T01:42:54;98730.59;;;10.02;80.86
18697;BME280;22617;43.690;27.956;2022-10-04T01:48:04;98729.63;;;10.12;80.70
18697;BME280;22617;43.690;27.956;2022-10-04T01:53:13;98735.72;;;10.14;80.95
18697;BME280;22617;43.690;27.956;2022-10-04T01:58:24;98735.69;;;10.22;80.44
18697;BME280;22617;43.690;27.956;2022-10-04T02:03:33;98737.44;;;10.18;80.13
18697;BME280;22617;43.690;27.956;2022-10-04T02:08:43;98739.13;;;10.30;79.60
18697;BME280;22617;43.690;27.956;2022-10-04T02:13:50;98723.56;;;10.13;79.96
18697;BME280;22617;43.690;27.956;2022-10-04T02:18:55;98734.88;;;10.09;79.65
18697;BME280;22617;43.690;27.956;2022-10-04T02:24:00;98739.34;;;9.84;80.46
18697;BME280;22617;43.690;27.956;2022-10-04T02:29:05;98743.63;;;9.93;80.31
18697;BME280;22617;43.690;27.956;2022-10-04T02:34:08;98748.91;;;9.87;80.80
18697;BME280;22617;43.690;27.956;2022-10-04T02:39:14;98735.03;;;9.82;80.69
18697;BME280;22617;43.690;27.956;2022-10-04T02:44:23;98742.91;;;9.70;81.71
18697;BME280;22617;43.690;27.956;2022-10-04T02:49:30;98749.84;;;9.71;81.29
18697;BME280;22617;43.690;27.956;2022-10-04T02:54:41;98752.41;;;9.78;81.04
18697;BME280;22617;43.690;27.956;2022-10-04T02:59:49;98752.44;;;9.69;80.62
18697;BME280;22617;43.690;27.956;2022-10-04T03:04:57;98765.50;;;9.63;81.09
18697;BME280;22617;43.690;27.956;2022-10-04T03:10:02;98760.25;;;9.72;80.83
18697;BME280;22617;43.690;27.956;2022-10-04T03:15:11;98762.00;;;9.66;80.66
18697;BME280;22617;43.690;27.956;2022-10-04T03:20:16;98765.47;;;9.72;80.89
18697;BME280;22617;43.690;27.956;2022-10-04T03:25:25;98775.91;;;9.61;80.61
18697;BME280;22617;43.690;27.956;2022-10-04T03:30:33;98780.25;;;9.55;80.93
18697;BME280;22617;43.690;27.956;2022-10-04T03:35:38;98798.47;;;9.58;80.52
18697;BME280;22617;43.690;27.956;2022-10-04T03:40:48;98815.81;;;9.63;80.60
18697;BME280;22617;43.690;27.956;2022-10-04T03:45:55;98813.19;;;9.54;80.26
18697;BME280;22617;43.690;27.956;2022-10-04T03:51:02;98827.97;;;9.46;79.95
18697;BME280;22617;43.690;27.956;2022-10-04T03:56:10;98827.97;;;9.46;80.66
18697;BME280;22617;43.690;27.956;2022-10-04T04:01:23;98828.84;;;9.48;79.94
18697;BME280;22617;43.690;27.956;2022-10-04T04:06:41;98843.59;;;9.43;80.23
18697;BME280;22617;43.690;27.956;2022-10-04T04:11:49;98846.19;;;9.46;80.83
18697;BME280;22617;43.690;27.956;2022-10-04T04:22:36;98859.19;;;9.54;79.99
18697;BME280;22617;43.690;27.956;2022-10-04T04:27:45;98860.94;;;9.38;80.61
18697;BME280;22617;43.690;27.956;2022-10-04T04:32:54;98875.69;;;9.36;81.37
18697;BME280;22617;43.690;27.956;2022-10-04T04:38:04;98878.25;;;9.45;81.22
18697;BME280;22617;43.690;27.956;2022-10-04T04:43:12;98889.53;;;9.46;81.43
18697;BME280;22617;43.690;27.956;2022-10-04T04:48:19;98906.00;;;9.51;82.10
18697;BME280;22617;43.690;27.956;2022-10-04T04:53:26;98909.50;;;9.48;81.46
18697;BME280;22617;43.690;27.956;2022-10-04T04:58:32;98916.38;;;9.69;82.38
18697;BME280;22617;43.690;27.956;2022-10-04T05:03:39;98928.50;;;9.75;81.61
18697;BME280;22617;43.690;27.956;2022-10-04T05:08:48;98934.59;;;9.75;81.88
18697;BME280;22617;43.690;27.956;2022-10-04T05:13:54;98939.75;;;9.95;81.88
18697;BME280;22617;43.690;27.956;2022-10-04T05:19:05;98945.78;;;10.07;81.32
18697;BME280;22617;43.690;27.956;2022-10-04T05:24:12;98943.22;;;9.98;81.83
18697;BME280;22617;43.690;27.956;2022-10-04T05:29:19;98956.19;;;10.07;81.99
18697;BME280;22617;43.690;27.956;2022-10-04T05:34:27;98958.81;;;10.26;82.30
18697;BME280;22617;43.690;27.956;2022-10-04T05:39:38;98969.19;;;10.33;81.59
18697;BME280;22617;43.690;27.956;2022-10-04T05:44:48;98987.31;;;10.56;81.02
18697;BME280;22617;43.690;27.956;2022-10-04T05:49:56;98985.50;;;10.78;81.33
18697;BME280;22617;43.690;27.956;2022-10-04T05:55:19;98987.94;;;11.05;80.30
18697;BME280;22617;43.690;27.956;2022-10-04T06:00:30;98993.06;;;11.20;79.93
18697;BME280;22617;43.690;27.956;2022-10-04T06:05:48;99000.72;;;11.45;79.24
18697;BME280;22617;43.690;27.956;2022-10-04T06:11:04;98997.09;;;11.62;78.44
18697;BME280;22617;43.690;27.956;2022-10-04T06:16:16;99014.22;;;11.95;77.81
18697;BME280;22617;43.690;27.956;2022-10-04T06:21:26;99012.34;;;12.12;78.03
18697;BME280;22617;43.690;27.956;2022-10-04T06:26:36;99016.69;;;12.12;76.68
18697;BME280;22617;43.690;27.956;2022-10-04T06:37:30;99011.28;;;12.32;76.36
18697;BME280;22617;43.690;27.956;2022-10-04T06:42:49;99010.13;;;12.55;75.50
18697;BME280;22617;43.690;27.956;2022-10-04T06:48:08;99023.84;;;12.71;76.81
18697;BME280;22617;43.690;27.956;2022-10-04T06:53:25;99018.16;;;13.07;74.75
18697;BME280;22617;43.690;27.956;2022-10-04T06:58:45;99022.09;;;13.39;73.09
18697;BME280;22617;43.690;27.956;2022-10-04T07:03:58;99030.69;;;13.48;72.49
18697;BME280;22617;43.690;27.956;2022-10-04T07:09:06;99039.00;;;13.75;72.58
18697;BME280;22617;43.690;27.956;2022-10-04T07:14:19;99041.06;;;13.53;72.07
18697;BME280;22617;43.690;27.956;2022-10-04T07:19:32;99047.47;;;13.34;72.57
18697;BME280;22617;43.690;27.956;2022-10-04T07:24:46;99043.00;;;13.42;72.88
18697;BME280;22617;43.690;27.956;2022-10-04T07:29:55;99054.53;;;13.29;71.63
18697;BME280;22617;43.690;27.956;2022-10-04T07:35:03;99066.13;;;13.71;71.29
18697;BME280;22617;43.690;27.956;2022-10-04T07:40:18;99068.44;;;14.41;69.64
18697;BME280;22617;43.690;27.956;2022-10-04T07:45:26;99072.03;;;14.37;67.37
18697;BME280;22617;43.690;27.956;2022-10-04T07:50:38;99082.41;;;14.88;67.09
18697;BME280;22617;43.690;27.956;2022-10-04T07:55:50;99072.06;;;15.21;66.08
18697;BME280;22617;43.690;27.956;2022-10-04T08:00:59;99075.81;;;15.53;64.63
18697;BME280;22617;43.690;27.956;2022-10-04T08:06:08;99074.56;;;16.04;63.79
18697;BME280;22617;43.690;27.956;2022-10-04T08:11:22;99084.00;;;16.45;63.22
18697;BME280;22617;43.690;27.956;2022-10-04T08:16:34;99078.44;;;16.90;61.71
18697;BME280;22617;43.690;27.956;2022-10-04T08:21:43;99083.97;;;16.81;62.22
18697;BME280;22617;43.690;27.956;2022-10-04T08:27:06;99091.19;;;17.64;60.62
18697;BME280;22617;43.690;27.956;2022-10-04T08:32:30;99086.75;;;17.94;60.04
18697;BME280;22617;43.690;27.956;2022-10-04T08:37:43;99087.69;;;17.91;58.87
18697;BME280;22617;43.690;27.956;2022-10-04T08:43:14;99088.63;;;18.67;58.17
18697;BME280;22617;43.690;27.956;2022-10-04T09:05:30;99118.00;;;19.31;54.70
18697;BME280;22617;43.690;27.956;2022-10-04T09:10:57;99113.88;;;19.47;52.84
18697;BME280;22617;43.690;27.956;2022-10-04T09:16:17;99116.34;;;20.19;52.88
18697;BME280;22617;43.690;27.956;2022-10-04T09:21:42;99125.25;;;20.80;52.86
18697;BME280;22617;43.690;27.956;2022-10-04T09:26:55;99126.88;;;20.82;51.76
18697;BME280;22617;43.690;27.956;2022-10-04T09:32:34;99130.66;;;19.91;51.36
18697;BME280;22617;43.690;27.956;2022-10-04T09:37:58;99133.53;;;21.11;50.81
18697;BME280;22617;43.690;27.956;2022-10-04T09:43:27;99136.91;;;20.76;50.97
18697;BME280;22617;43.690;27.956;2022-10-04T09:48:40;99140.00;;;19.08;51.92
18697;BME280;22617;43.690;27.956;2022-10-04T09:54:15;99149.97;;;18.49;53.19
18697;BME280;22617;43.690;27.956;2022-10-04T09:59:52;99155.19;;;18.24;51.92
18697;BME280;22617;43.690;27.956;2022-10-04T10:05:13;99153.09;;;18.87;53.79
18697;BME280;22617;43.690;27.956;2022-10-04T10:10:30;99148.03;;;18.56;53.28
18697;BME280;22617;43.690;27.956;2022-10-04T10:16:05;99156.25;;;18.19;55.77
18697;BME280;22617;43.690;27.956;2022-10-04T10:21:38;99154.81;;;17.81;55.39
18697;BME280;22617;43.690;27.956;2022-10-04T10:27:14;99161.19;;;17.74;54.91
18697;BME280;22617;43.690;27.956;2022-10-04T10:32:39;99161.59;;;17.60;55.37
18697;BME280;22617;43.690;27.956;2022-10-04T10:38:00;99163.94;;;17.40;55.20
18697;BME280;22617;43.690;27.956;2022-10-04T10:43:24;99172.00;;;17.34;56.65
18697;BME280;22617;43.690;27.956;2022-10-04T10:48:48;99170.56;;;17.22;56.92
18697;BME280;22617;43.690;27.956;2022-10-04T10:54:28;99175.28;;;17.11;56.42
18697;BME280;22617;43.690;27.956;2022-10-04T11:00:09;99178.06;;;17.07;57.04
18697;BME280;22617;43.690;27.956;2022-10-04T11:05:40;99179.06;;;17.01;56.75
18697;BME280;22617;43.690;27.956;2022-10-04T11:11:02;99177.47;;;16.95;56.10
18697;BME280;22617;43.690;27.956;2022-10-04T11:16:29;99180.34;;;16.86;58.08
18697;BME280;22617;43.690;27.956;2022-10-04T11:22:06;99187.88;;;16.68;57.87
18697;BME280;22617;43.690;27.956;2022-10-04T11:27:34;99181.00;;;16.61;58.87
18697;BME280;22617;43.690;27.956;2022-10-04T11:38:59;99203.28;;;16.46;60.20
18697;BME280;22617;43.690;27.956;2022-10-04T11:44:28;99206.88;;;16.42;60.90
18697;BME280;22617;43.690;27.956;2022-10-04T11:49:48;99203.34;;;16.44;62.25
18697;BME280;22617;43.690;27.956;2022-10-04T12:00:50;99211.56;;;16.68;58.54
18697;BME280;22617;43.690;27.956;2022-10-04T12:06:19;99206.13;;;16.74;59.29
18697;BME280;22617;43.690;27.956;2022-10-04T12:11:46;99206.91;;;16.77;56.97
18697;BME280;22617;43.690;27.956;2022-10-04T12:17:37;99215.50;;;16.84;57.32
18697;BME280;22617;43.690;27.956;2022-10-04T12:23:10;99212.34;;;16.70;57.61
18697;BME280;22617;43.690;27.956;2022-10-04T12:28:40;99210.91;;;16.56;58.65
18697;BME280;22617;43.690;27.956;2022-10-04T12:33:54;99208.75;;;16.37;59.00
18697;BME280;22617;43.690;27.956;2022-10-04T12:39:11;99221.75;;;16.44;58.86
18697;BME280;22617;43.690;27.956;2022-10-04T12:44:31;99218.59;;;16.66;59.64
18697;BME280;22617;43.690;27.956;2022-10-04T12:49:41;99227.84;;;16.83;58.85
18697;BME280;22617;43.690;27.956;2022-10-04T12:54:51;99228.53;;;16.88;57.33
18697;BME280;22617;43.690;27.956;2022-10-04T13:00:04;99225.09;;;16.86;56.68
18697;BME280;22617;43.690;27.956;2022-10-04T13:05:12;99224.34;;;16.81;56.41
18697;BME280;22617;43.690;27.956;2022-10-04T13:15:51;99231.47;;;17.42;56.05
18697;BME280;22617;43.690;27.956;2022-10-04T13:21:40;99220.56;;;17.87;53.55
18697;BME280;22617;43.690;27.956;2022-10-04T13:26:48;99209.91;;;17.61;54.31
18697;BME280;22617;43.690;27.956;2022-10-04T13:32:01;99211.06;;;17.18;54.96
18697;BME280;22617;43.690;27.956;2022-10-04T13:37:20;99226.50;;;16.99;54.99
18697;BME280;22617;43.690;27.956;2022-10-04T13:42:42;99223.84;;;17.01;57.35
18697;BME280;22617;43.690;27.956;2022-10-04T13:48:03;99225.88;;;16.90;58.25
18697;BME280;22617;43.690;27.956;2022-10-04T13:53:24;99229.75;;;16.77;59.03
18697;BME280;22617;43.690;27.956;2022-10-04T13:59:01;99231.88;;;16.61;61.47
18697;BME280;22617;43.690;27.956;2022-10-04T14:04:29;99234.94;;;16.43;60.21
18697;BME280;22617;43.690;27.956;2022-10-04T14:09:54;99240.63;;;16.25;61.93
18697;BME280;22617;43.690;27.956;2022-10-04T14:15:31;99248.88;;;16.08;59.99
18697;BME280;22617;43.690;27.956;2022-10-04T14:21:19;99249.16;;;15.96;61.70
18697;BME280;22617;43.690;27.956;2022-10-04T14:27:02;99255.63;;;15.80;62.92
18697;BME280;22617;43.690;27.956;2022-10-04T14:32:34;99265.50;;;15.68;63.37
18697;BME280;22617;43.690;27.956;2022-10-04T14:38:16;99261.84;;;15.77;63.94
18697;BME280;22617;43.690;27.956;2022-10-04T14:43:53;99273.66;;;15.98;63.18
18697;BME280;22617;43.690;27.956;2022-10-04T14:49:08;99269.03;;;16.09;62.64
18697;BME280;22617;43.690;27.956;2022-10-04T14:54:32;99276.03;;;16.10;62.50
18697;BME280;22617;43.690;27.956;2022-10-04T15:00:03;99285.00;;;16.01;63.12
18697;BME280;22617;43.690;27.956;2022-10-04T15:05:28;99285.13;;;15.94;62.86
18697;BME280;22617;43.690;27.956;2022-10-04T15:10:35;99292.66;;;15.69;63.58
18697;BME280;22617;43.690;27.956;2022-10-04T15:15:56;99298.34;;;15.45;63.85
18697;BME280;22617;43.690;27.956;2022-10-04T15:21:08;99306.81;;;15.13;64.96
18697;BME280;22617;43.690;27.956;2022-10-04T15:26:42;99313.38;;;14.88;65.70
18697;BME280;22617;43.690;27.956;2022-10-04T15:32:02;99325.16;;;14.62;66.53
18697;BME280;22617;43.690;27.956;2022-10-04T15:37:18;99327.19;;;14.42;67.28
18697;BME280;22617;43.690;27.956;2022-10-04T15:42:28;99337.16;;;14.14;68.18
18697;BME280;22617;43.690;27.956;2022-10-04T15:47:47;99334.84;;;13.88;68.05
18697;BME280;22617;43.690;27.956;2022-10-04T15:53:10;99345.56;;;13.70;68.33
18697;BME280;22617;43.690;27.956;2022-10-04T15:58:33;99349.22;;;13.54;68.69
18697;BME280;22617;43.690;27.956;2022-10-04T16:03:44;99356.28;;;13.43;68.60
18697;BME280;22617;43.690;27.956;2022-10-04T16:09:04;99354.72;;;13.25;69.62
18697;BME280;22617;43.690;27.956;2022-10-04T16:14:36;99358.53;;;12.85;70.52
18697;BME280;22617;43.690;27.956;2022-10-04T16:19:52;99360.44;;;12.58;71.91
18697;BME280;22617;43.690;27.956;2022-10-04T16:25:29;99375.25;;;12.65;71.55
18697;BME280;22617;43.690;27.956;2022-10-04T16:30:43;99374.38;;;12.62;71.33
18697;BME280;22617;43.690;27.956;2022-10-04T16:36:04;99385.75;;;12.55;71.13
18697;BME280;22617;43.690;27.956;2022-10-04T16:41:13;99389.25;;;12.55;70.64
18697;BME280;22617;43.690;27.956;2022-10-04T16:46:35;99396.25;;;12.44;70.95
18697;BME280;22617;43.690;27.956;2022-10-04T16:57:34;99402.44;;;12.23;70.97
18697;BME280;22617;43.690;27.956;2022-10-04T17:03:08;99400.81;;;12.01;70.76
18697;BME280;22617;43.690;27.956;2022-10-04T17:08:21;99411.31;;;11.88;71.22
18697;BME280;22617;43.690;27.956;2022-10-04T17:13:30;99419.16;;;11.72;71.45
18697;BME280;22617;43.690;27.956;2022-10-04T17:18:42;99421.78;;;11.59;72.11
18697;BME280;22617;43.690;27.956;2022-10-04T17:24:04;99420.91;;;11.49;71.62
18697;BME280;22617;43.690;27.956;2022-10-04T17:29:23;99432.22;;;11.42;72.17
18697;BME280;22617;43.690;27.956;2022-10-04T17:34:44;99436.59;;;11.34;71.61
18697;BME280;22617;43.690;27.956;2022-10-04T17:39:58;99440.06;;;11.27;71.99
18697;BME280;22617;43.690;27.956;2022-10-04T17:57:07;99459.19;;;11.08;71.49
18697;BME280;22617;43.690;27.956;2022-10-04T18:02:18;99463.50;;;10.92;71.85
18697;BME280;22617;43.690;27.956;2022-10-04T18:07:25;99473.06;;;10.93;71.43
18697;BME280;22617;43.690;27.956;2022-10-04T18:12:36;99487.84;;;10.94;71.95
18697;BME280;22617;43.690;27.956;2022-10-04T18:17:44;99492.16;;;10.74;71.56
18697;BME280;22617;43.690;27.956;2022-10-04T18:22:57;99500.81;;;10.73;72.36
18697;BME280;22617;43.690;27.956;2022-10-04T18:28:10;99501.66;;;10.63;71.51
18697;BME280;22617;43.690;27.956;2022-10-04T18:33:18;99513.75;;;10.48;72.20
18697;BME280;22617;43.690;27.956;2022-10-04T18:38:27;99521.59;;;10.52;72.12
18697;BME280;22617;43.690;27.956;2022-10-04T18:43:36;99535.41;;;10.37;72.32
18697;BME280;22617;43.690;27.956;2022-10-04T18:48:50;99535.41;;;10.34;72.99
18697;BME280;22617;43.690;27.956;2022-10-04T18:54:07;99540.50;;;10.19;72.36
18697;BME280;22617;43.690;27.956;2022-10-04T18:59:21;99551.81;;;10.22;72.14
18697;BME280;22617;43.690;27.956;2022-10-04T19:04:56;99558.63;;;10.02;72.90
18697;BME280;22617;43.690;27.956;2022-10-04T19:10:23;99572.50;;;10.01;74.08
18697;BME280;22617;43.690;27.956;2022-10-04T19:15:45;99574.28;;;10.10;73.00
18697;BME280;22617;43.690;27.956;2022-10-04T19:20:55;99567.34;;;10.13;73.15
18697;BME280;22617;43.690;27.956;2022-10-04T19:26:04;99571.59;;;9.96;72.56
18697;BME280;22617;43.690;27.956;2022-10-04T19:31:33;99572.50;;;10.01;72.32
18697;BME280;22617;43.690;27.956;2022-10-04T19:36:48;99575.09;;;10.04;72.62
18697;BME280;22617;43.690;27.956;2022-10-04T19:41:56;99582.09;;;10.08;72.79
18697;BME280;22617;43.690;27.956;2022-10-04T19:47:10;99584.66;;;10.02;72.75
18697;BME280;22617;43.690;27.956;2022-10-04T19:52:22;99588.94;;;9.95;72.14
18697;BME280;22617;43.690;27.956;2022-10-04T19:57:35;99588.72;;;9.71;72.79
18697;BME280;22617;43.690;27.956;2022-10-04T20:02:41;99589.69;;;9.84;72.84
18697;BME280;22617;43.690;27.956;2022-10-04T20:07:51;99589.75;;;9.90;72.50
18697;BME280;22617;43.690;27.956;2022-10-04T20:13:09;99590.59;;;9.89;72.94
18697;BME280;22617;43.690;27.956;2022-10-04T20:24:14;99605.25;;;9.73;72.83
18697;BME280;22617;43.690;27.956;2022-10-04T20:35:09;99607.75;;;9.64;73.39
18697;BME280;22617;43.690;27.956;2022-10-04T20:40:41;99607.69;;;9.58;73.63
18697;BME280;22617;43.690;27.956;2022-10-04T20:45:46;99611.22;;;9.64;73.38
18697;BME280;22617;43.690;27.956;2022-10-04T20:50:51;99612.03;;;9.57;74.20
18697;BME280;22617;43.690;27.956;2022-10-04T20:56:10;99618.75;;;9.37;73.89
18697;BME280;22617;43.690;27.956;2022-10-04T21:01:20;99618.69;;;9.31;74.23
18697;BME280;22617;43.690;27.956;2022-10-04T21:06:52;99623.06;;;9.34;74.09
18697;BME280;22617;43.690;27.956;2022-10-04T21:11:59;99625.00;;;9.54;74.58
18697;BME280;22617;43.690;27.956;2022-10-04T21:17:03;99625.06;;;9.60;74.72
18697;BME280;22617;43.690;27.956;2022-10-04T21:27:33;99621.63;;;9.64;74.37
18697;BME280;22617;43.690;27.956;2022-10-04T21:32:36;99627.66;;;9.60;75.16
18697;BME280;22617;43.690;27.956;2022-10-04T21:37:40;99632.03;;;9.64;74.40
18697;BME280;22617;43.690;27.956;2022-10-04T21:42:44;99630.31;;;9.65;74.61
18697;BME280;22617;43.690;27.956;2022-10-04T21:47:48;99637.22;;;9.61;74.89
18697;BME280;22617;43.690;27.956;2022-10-04T21:52:52;99625.88;;;9.53;74.37
18697;BME280;22617;43.690;27.956;2022-10-04T21:57:56;99642.91;;;9.27;74.69
18697;BME280;22617;43.690;27.956;2022-10-04T22:03:00;99642.09;;;9.30;74.42
18697;BME280;22617;43.690;27.956;2022-10-04T22:08:03;99646.50;;;9.37;74.58
18697;BME280;22617;43.690;27.956;2022-10-04T22:13:08;99649.91;;;9.30;74.50
18697;BME280;22617;43.690;27.956;2022-10-04T22:18:12;99648.97;;;9.25;75.59
18697;BME280;22617;43.690;27.956;2022-10-04T22:23:19;99650.81;;;9.36;75.50
18697;BME280;22617;43.690;27.956;2022-10-04T22:28:25;99656.09;;;9.42;75.36
18697;BME280;22617;43.690;27.956;2022-10-04T22:33:32;99655.22;;;9.42;75.75
18697;BME280;22617;43.690;27.956;2022-10-04T22:38:36;99666.53;;;9.44;75.85
18697;BME280;22617;43.690;27.956;2022-10-04T22:43:41;99653.59;;;9.51;75.38
18697;BME280;22617;43.690;27.956;2022-10-04T22:48:47;99661.41;;;9.51;75.06
18697;BME280;22617;43.690;27.956;2022-10-04T22:53:50;99662.16;;;9.41;74.49
18697;BME280;22617;43.690;27.956;2022-10-04T22:58:57;99660.34;;;9.34;74.48
18697;BME280;22617;43.690;27.956;2022-10-04T23:04:03;99664.75;;;9.38;75.17
18697;BME280;22617;43.690;27.956;2022-10-04T23:09:06;99664.59;;;9.28;74.44
18697;BME280;22617;43.690;27.956;2022-10-04T23:14:12;99668.91;;;9.26;74.12
18697;BME280;22617;43.690;27.956;2022-10-04T23:19:16;99668.72;;;9.09;73.74
18697;BME280;22617;43.690;27.956;2022-10-04T23:24:21;99680.94;;;9.14;75.09
18697;BME280;22617;43.690;27.956;2022-10-04T23:29:30;99674.94;;;9.22;75.33
18697;BME280;22617;43.690;27.956;2022-10-04T23:34:37;99682.25;;;9.53;75.13
18697;BME280;22617;43.690;27.956;2022-10-04T23:39:41;99673.63;;;9.57;74.63
18697;BME280;22617;43.690;27.956;2022-10-04T23:44:48;99684.97;;;9.65;73.95
18697;BME280;22617;43.690;27.956;2022-10-04T23:49:52;99679.69;;;9.57;73.39
18697;BME280;22617;43.690;27.956;2022-10-04T23:54:56;99678.63;;;9.42;73.75
